sensor_id;sensor_type;location;lat;lon;timestamp;P1;durP1;ratioP1;P2;durP2;ratioP2
65545;SDS011;52177;55.968;37.498;2022-08-02T00:00:14;10.57;;;5.65;;
65545;SDS011;52177;55.968;37.498;2022-08-02T00:00:45;6.18;;;5.30;;
65545;SDS011;52177;55.968;37.498;2022-08-02T00:01:16;9.52;;;5.93;;
65545;SDS011;52177;55.968;37.498;2022-08-02T00:01:46;8.80;;;5.47;;
65545;SDS011;52177;55.968;37.498;2022-08-02T00:02:17;7.25;;;5.90;;
65545;SDS011;52177;55.968;37.498;2022-08-02T00:02:47;9.63;;;5.88;;
65545;SDS011;52177;55.968;37.498;2022-08-02T00:03:18;8.77;;;5.15;;
65545;SDS011;52177;55.968;37.498;2022-08-02T00:03:48;7.57;;;5.65;;
65545;SDS011;52177;55.968;37.498;2022-08-02T00:04:19;8.52;;;5.70;;
65545;SDS011;52177;55.968;37.498;2022-08-02T00:04:50;7.68;;;5.57;;
65545;SDS011;52177;55.968;37.498;2022-08-02T00:05:21;9.65;;;5.80;;
65545;SDS011;52177;55.968;37.498;2022-08-02T00:05:51;9.02;;;5.57;;
65545;SDS011;52177;55.968;37.498;2022-08-02T00:06:22;8.40;;;5.57;;
65545;SDS011;52177;55.968;37.498;2022-08-02T00:06:53;8.50;;;5.43;;
65545;SDS011;52177;55.968;37.498;2022-08-02T00:07:23;8.25;;;5.53;;
65545;SDS011;52177;55.968;37.498;2022-08-02T00:07:53;9.07;;;5.38;;
65545;SDS011;52177;55.968;37.498;2022-08-02T00:08:24;7.57;;;5.60;;
65545;SDS011;52177;55.968;37.498;2022-08-02T00:08:54;7.82;;;5.55;;
65545;SDS011;52177;55.968;37.498;2022-08-02T00:09:25;11.90;;;6.15;;
65545;SDS011;52177;55.968;37.498;2022-08-02T00:09:55;10.40;;;5.85;;
65545;SDS011;52177;55.968;37.498;2022-08-02T00:10:26;7.43;;;5.05;;
65545;SDS011;52177;55.968;37.498;2022-08-02T00:10:56;8.38;;;5.93;;
65545;SDS011;52177;55.968;37.498;2022-08-02T00:11:27;13.75;;;5.85;;
65545;SDS011;52177;55.968;37.498;2022-08-02T00:11:57;10.05;;;5.40;;
65545;SDS011;52177;55.968;37.498;2022-08-02T00:12:28;8.20;;;5.22;;
65545;SDS011;52177;55.968;37.498;2022-08-02T00:12:58;5.93;;;5.30;;
65545;SDS011;52177;55.968;37.498;2022-08-02T00:13:29;8.40;;;5.65;;
65545;SDS011;52177;55.968;37.498;2022-08-02T00:13:59;6.65;;;5.15;;
65545;SDS011;52177;55.968;37.498;2022-08-02T00:14:29;9.45;;;5.78;;
65545;SDS011;52177;55.968;37.498;2022-08-02T00:15:00;7.00;;;5.07;;
65545;SDS011;52177;55.968;37.498;2022-08-02T00:15:30;8.82;;;5.63;;
65545;SDS011;52177;55.968;37.498;2022-08-02T00:16:01;6.18;;;5.38;;
65545;SDS011;52177;55.968;37.498;2022-08-02T00:16:31;7.93;;;5.40;;
65545;SDS011;52177;55.968;37.498;2022-08-02T00:17:02;8.48;;;5.85;;
65545;SDS011;52177;55.968;37.498;2022-08-02T00:17:33;9.23;;;5.78;;
65545;SDS011;52177;55.968;37.498;2022-08-02T00:18:04;9.23;;;5.28;;
65545;SDS011;52177;55.968;37.498;2022-08-02T00:18:34;10.00;;;5.53;;
65545;SDS011;52177;55.968;37.498;2022-08-02T00:19:05;9.00;;;5.50;;
65545;SDS011;52177;55.968;37.498;2022-08-02T00:19:35;7.78;;;5.68;;
65545;SDS011;52177;55.968;37.498;2022-08-02T00:20:06;7.30;;;5.53;;
65545;SDS011;52177;55.968;37.498;2022-08-02T00:20:37;8.23;;;5.20;;
65545;SDS011;52177;55.968;37.498;2022-08-02T00:21:07;7.35;;;5.38;;
65545;SDS011;52177;55.968;37.498;2022-08-02T00:21:38;7.25;;;4.80;;
65545;SDS011;52177;55.968;37.498;2022-08-02T00:22:08;6.88;;;5.55;;
65545;SDS011;52177;55.968;37.498;2022-08-02T00:22:39;7.93;;;5.65;;
65545;SDS011;52177;55.968;37.498;2022-08-02T00:23:09;7.38;;;5.70;;
65545;SDS011;52177;55.968;37.498;2022-08-02T00:23:40;8.43;;;5.70;;
65545;SDS011;52177;55.968;37.498;2022-08-02T00:24:10;7.03;;;5.68;;
65545;SDS011;52177;55.968;37.498;2022-08-02T00:24:41;5.93;;;5.28;;
65545;SDS011;52177;55.968;37.498;2022-08-02T00:25:11;9.40;;;4.90;;
65545;SDS011;52177;55.968;37.498;2022-08-02T00:25:42;8.65;;;5.68;;
65545;SDS011;52177;55.968;37.498;2022-08-02T00:26:12;7.07;;;4.85;;
65545;SDS011;52177;55.968;37.498;2022-08-02T00:26:43;8.65;;;5.20;;
65545;SDS011;52177;55.968;37.498;2022-08-02T00:27:13;8.45;;;5.45;;
65545;SDS011;52177;55.968;37.498;2022-08-02T00:27:44;10.43;;;5.50;;
65545;SDS011;52177;55.968;37.498;2022-08-02T00:28:14;10.25;;;5.95;;
65545;SDS011;52177;55.968;37.498;2022-08-02T00:28:44;11.10;;;6.45;;
65545;SDS011;52177;55.968;37.498;2022-08-02T00:29:15;5.25;;;4.63;;
65545;SDS011;52177;55.968;37.498;2022-08-02T00:29:45;7.63;;;5.43;;
65545;SDS011;52177;55.968;37.498;2022-08-02T00:30:16;8.77;;;5.88;;
65545;SDS011;52177;55.968;37.498;2022-08-02T00:30:46;8.90;;;5.80;;
65545;SDS011;52177;55.968;37.498;2022-08-02T00:31:16;11.07;;;5.35;;
65545;SDS011;52177;55.968;37.498;2022-08-02T00:31:47;10.18;;;5.15;;
65545;SDS011;52177;55.968;37.498;2022-08-02T00:32:17;5.88;;;5.10;;
65545;SDS011;52177;55.968;37.498;2022-08-02T00:32:48;11.13;;;5.85;;
65545;SDS011;52177;55.968;37.498;2022-08-02T00:33:18;7.53;;;5.15;;
65545;SDS011;52177;55.968;37.498;2022-08-02T00:33:49;8.43;;;5.68;;
65545;SDS011;52177;55.968;37.498;2022-08-02T00:34:19;7.85;;;5.57;;
65545;SDS011;52177;55.968;37.498;2022-08-02T00:34:50;10.23;;;5.75;;
65545;SDS011;52177;55.968;37.498;2022-08-02T00:35:20;10.75;;;5.43;;
65545;SDS011;52177;55.968;37.498;2022-08-02T00:35:51;6.75;;;5.10;;
65545;SDS011;52177;55.968;37.498;2022-08-02T00:36:21;6.10;;;4.97;;
65545;SDS011;52177;55.968;37.498;2022-08-02T00:36:52;6.10;;;5.22;;
65545;SDS011;52177;55.968;37.498;2022-08-02T00:37:22;5.82;;;5.22;;
65545;SDS011;52177;55.968;37.498;2022-08-02T00:37:53;8.75;;;5.38;;
65545;SDS011;52177;55.968;37.498;2022-08-02T00:38:23;9.18;;;5.55;;
65545;SDS011;52177;55.968;37.498;2022-08-02T00:38:53;7.88;;;5.82;;
65545;SDS011;52177;55.968;37.498;2022-08-02T00:39:24;9.95;;;5.50;;
65545;SDS011;52177;55.968;37.498;2022-08-02T00:39:54;8.77;;;5.15;;
65545;SDS011;52177;55.968;37.498;2022-08-02T00:40:26;8.63;;;5.18;;
65545;SDS011;52177;55.968;37.498;2022-08-02T00:40:56;8.85;;;5.40;;
65545;SDS011;52177;55.968;37.498;2022-08-02T00:41:27;9.13;;;5.82;;
65545;SDS011;52177;55.968;37.498;2022-08-02T00:41:57;8.50;;;5.57;;
65545;SDS011;52177;55.968;37.498;2022-08-02T00:42:28;7.43;;;5.43;;
65545;SDS011;52177;55.968;37.498;2022-08-02T00:43:05;9.13;;;5.50;;
65545;SDS011;52177;55.968;37.498;2022-08-02T00:43:40;11.80;;;5.90;;
65545;SDS011;52177;55.968;37.498;2022-08-02T00:44:10;8.90;;;5.88;;
65545;SDS011;52177;55.968;37.498;2022-08-02T00:44:41;7.25;;;5.20;;
65545;SDS011;52177;55.968;37.498;2022-08-02T00:45:11;6.18;;;5.57;;
65545;SDS011;52177;55.968;37.498;2022-08-02T00:45:42;8.75;;;6.00;;
65545;SDS011;52177;55.968;37.498;2022-08-02T00:46:13;9.23;;;5.70;;
65545;SDS011;52177;55.968;37.498;2022-08-02T00:46:45;8.65;;;5.40;;
65545;SDS011;52177;55.968;37.498;2022-08-02T00:47:15;6.55;;;5.32;;
65545;SDS011;52177;55.968;37.498;2022-08-02T00:47:46;9.80;;;5.72;;
65545;SDS011;52177;55.968;37.498;2022-08-02T00:48:16;7.07;;;5.50;;
65545;SDS011;52177;55.968;37.498;2022-08-02T00:48:47;9.00;;;5.80;;
65545;SDS011;52177;55.968;37.498;2022-08-02T00:49:18;5.65;;;4.93;;
65545;SDS011;52177;55.968;37.498;2022-08-02T00:49:48;8.07;;;5.47;;
65545;SDS011;52177;55.968;37.498;2022-08-02T00:50:18;6.72;;;5.65;;
65545;SDS011;52177;55.968;37.498;2022-08-02T00:50:49;7.03;;;5.35;;
65545;SDS011;52177;55.968;37.498;2022-08-02T00:51:19;10.50;;;5.50;;
65545;SDS011;52177;55.968;37.498;2022-08-02T00:51:50;7.63;;;5.20;;
65545;SDS011;52177;55.968;37.498;2022-08-02T00:52:21;10.02;;;5.63;;
65545;SDS011;52177;55.968;37.498;2022-08-02T00:52:55;9.40;;;5.38;;
65545;SDS011;52177;55.968;37.498;2022-08-02T00:53:25;9.52;;;5.68;;
65545;SDS011;52177;55.968;37.498;2022-08-02T00:53:56;8.52;;;5.10;;
65545;SDS011;52177;55.968;37.498;2022-08-02T00:54:26;9.93;;;5.40;;
65545;SDS011;52177;55.968;37.498;2022-08-02T00:54:57;6.47;;;5.15;;
65545;SDS011;52177;55.968;37.498;2022-08-02T00:55:28;7.38;;;5.63;;
65545;SDS011;52177;55.968;37.498;2022-08-02T00:55:59;10.73;;;5.45;;
65545;SDS011;52177;55.968;37.498;2022-08-02T00:56:29;8.98;;;5.40;;
65545;SDS011;52177;55.968;37.498;2022-08-02T00:57:00;6.82;;;5.25;;
65545;SDS011;52177;55.968;37.498;2022-08-02T00:57:30;8.65;;;5.75;;
65545;SDS011;52177;55.968;37.498;2022-08-02T00:58:01;10.93;;;5.50;;
65545;SDS011;52177;55.968;37.498;2022-08-02T00:58:32;8.95;;;5.50;;
65545;SDS011;52177;55.968;37.498;2022-08-02T00:59:03;11.07;;;5.30;;
65545;SDS011;52177;55.968;37.498;2022-08-02T00:59:33;7.13;;;5.05;;
65545;SDS011;52177;55.968;37.498;2022-08-02T01:00:04;8.13;;;5.20;;
65545;SDS011;52177;55.968;37.498;2022-08-02T01:00:35;7.88;;;5.35;;
65545;SDS011;52177;55.968;37.498;2022-08-02T01:01:06;6.95;;;4.72;;
65545;SDS011;52177;55.968;37.498;2022-08-02T01:01:36;7.15;;;4.97;;
65545;SDS011;52177;55.968;37.498;2022-08-02T01:02:10;5.45;;;4.80;;
65545;SDS011;52177;55.968;37.498;2022-08-02T01:02:40;6.65;;;4.90;;
65545;SDS011;52177;55.968;37.498;2022-08-02T01:03:11;9.57;;;5.35;;
65545;SDS011;52177;55.968;37.498;2022-08-02T01:03:42;8.60;;;5.80;;
65545;SDS011;52177;55.968;37.498;2022-08-02T01:04:13;8.50;;;5.38;;
65545;SDS011;52177;55.968;37.498;2022-08-02T01:04:44;6.93;;;5.20;;
65545;SDS011;52177;55.968;37.498;2022-08-02T01:05:14;5.28;;;4.75;;
65545;SDS011;52177;55.968;37.498;2022-08-02T01:05:45;6.60;;;5.38;;
65545;SDS011;52177;55.968;37.498;2022-08-02T01:06:16;7.32;;;5.22;;
65545;SDS011;52177;55.968;37.498;2022-08-02T01:06:46;8.20;;;5.30;;
65545;SDS011;52177;55.968;37.498;2022-08-02T01:07:16;6.80;;;4.75;;
65545;SDS011;52177;55.968;37.498;2022-08-02T01:07:47;7.82;;;5.70;;
65545;SDS011;52177;55.968;37.498;2022-08-02T01:08:18;6.45;;;5.03;;
65545;SDS011;52177;55.968;37.498;2022-08-02T01:08:48;9.38;;;5.28;;
65545;SDS011;52177;55.968;37.498;2022-08-02T01:09:19;7.40;;;5.30;;
65545;SDS011;52177;55.968;37.498;2022-08-02T01:09:49;6.07;;;5.10;;
65545;SDS011;52177;55.968;37.498;2022-08-02T01:10:19;6.00;;;5.40;;
65545;SDS011;52177;55.968;37.498;2022-08-02T01:10:50;7.65;;;5.32;;
65545;SDS011;52177;55.968;37.498;2022-08-02T01:11:20;7.78;;;5.05;;
65545;SDS011;52177;55.968;37.498;2022-08-02T01:11:51;9.60;;;5.82;;
65545;SDS011;52177;55.968;37.498;2022-08-02T01:12:21;7.07;;;4.93;;
65545;SDS011;52177;55.968;37.498;2022-08-02T01:12:52;9.68;;;5.50;;
65545;SDS011;52177;55.968;37.498;2022-08-02T01:13:22;8.10;;;5.35;;
65545;SDS011;52177;55.968;37.498;2022-08-02T01:13:58;10.27;;;5.40;;
65545;SDS011;52177;55.968;37.498;2022-08-02T01:14:40;8.45;;;5.22;;
65545;SDS011;52177;55.968;37.498;2022-08-02T01:15:13;8.00;;;5.45;;
65545;SDS011;52177;55.968;37.498;2022-08-02T01:15:46;6.47;;;4.93;;
65545;SDS011;52177;55.968;37.498;2022-08-02T01:16:22;9.00;;;5.30;;
65545;SDS011;52177;55.968;37.498;2022-08-02T01:18:23;9.20;;;5.18;;
65545;SDS011;52177;55.968;37.498;2022-08-02T01:19:04;8.43;;;5.10;;
65545;SDS011;52177;55.968;37.498;2022-08-02T01:20:48;6.93;;;5.05;;
65545;SDS011;52177;55.968;37.498;2022-08-02T01:21:49;6.28;;;5.10;;
65545;SDS011;52177;55.968;37.498;2022-08-02T01:24:09;5.97;;;5.07;;
65545;SDS011;52177;55.968;37.498;2022-08-02T01:26:39;6.88;;;5.25;;
65545;SDS011;52177;55.968;37.498;2022-08-02T01:29:29;12.38;;;5.40;;
65545;SDS011;52177;55.968;37.498;2022-08-02T01:30:03;5.70;;;5.10;;
65545;SDS011;52177;55.968;37.498;2022-08-02T01:30:36;7.28;;;5.00;;
65545;SDS011;52177;55.968;37.498;2022-08-02T01:31:43;8.40;;;5.25;;
65545;SDS011;52177;55.968;37.498;2022-08-02T01:32:12;9.40;;;5.45;;
65545;SDS011;52177;55.968;37.498;2022-08-02T01:32:47;5.90;;;5.30;;
65545;SDS011;52177;55.968;37.498;2022-08-02T01:33:22;7.95;;;5.30;;
65545;SDS011;52177;55.968;37.498;2022-08-02T01:34:53;6.53;;;5.32;;
65545;SDS011;52177;55.968;37.498;2022-08-02T01:35:31;5.85;;;5.07;;
65545;SDS011;52177;55.968;37.498;2022-08-02T01:36:08;9.15;;;5.15;;
65545;SDS011;52177;55.968;37.498;2022-08-02T01:36:43;7.50;;;5.40;;
65545;SDS011;52177;55.968;37.498;2022-08-02T01:37:23;8.02;;;5.65;;
65545;SDS011;52177;55.968;37.498;2022-08-02T01:38:07;9.60;;;6.00;;
65545;SDS011;52177;55.968;37.498;2022-08-02T01:38:42;7.22;;;5.25;;
65545;SDS011;52177;55.968;37.498;2022-08-02T01:39:16;9.65;;;5.75;;
65545;SDS011;52177;55.968;37.498;2022-08-02T01:39:54;14.20;;;6.00;;
65545;SDS011;52177;55.968;37.498;2022-08-02T01:40:30;8.25;;;5.90;;
65545;SDS011;52177;55.968;37.498;2022-08-02T01:41:09;7.43;;;5.55;;
65545;SDS011;52177;55.968;37.498;2022-08-02T01:41:45;9.57;;;5.68;;
65545;SDS011;52177;55.968;37.498;2022-08-02T01:42:18;7.53;;;5.10;;
65545;SDS011;52177;55.968;37.498;2022-08-02T01:42:52;7.55;;;5.60;;
65545;SDS011;52177;55.968;37.498;2022-08-02T01:43:24;7.53;;;5.13;;
65545;SDS011;52177;55.968;37.498;2022-08-02T01:43:58;7.20;;;5.32;;
65545;SDS011;52177;55.968;37.498;2022-08-02T01:44:30;9.20;;;5.82;;
65545;SDS011;52177;55.968;37.498;2022-08-02T01:45:04;6.88;;;5.30;;
65545;SDS011;52177;55.968;37.498;2022-08-02T01:45:38;9.63;;;5.72;;
65545;SDS011;52177;55.968;37.498;2022-08-02T01:46:11;8.63;;;4.97;;
65545;SDS011;52177;55.968;37.498;2022-08-02T01:46:44;10.20;;;5.82;;
65545;SDS011;52177;55.968;37.498;2022-08-02T01:47:17;9.65;;;5.63;;
65545;SDS011;52177;55.968;37.498;2022-08-02T01:47:58;6.45;;;5.18;;
65545;SDS011;52177;55.968;37.498;2022-08-02T01:48:30;9.55;;;5.63;;
65545;SDS011;52177;55.968;37.498;2022-08-02T01:49:04;9.38;;;5.72;;
65545;SDS011;52177;55.968;37.498;2022-08-02T01:49:38;10.60;;;5.57;;
65545;SDS011;52177;55.968;37.498;2022-08-02T01:50:11;8.20;;;5.85;;
65545;SDS011;52177;55.968;37.498;2022-08-02T01:50:45;7.10;;;5.53;;
65545;SDS011;52177;55.968;37.498;2022-08-02T01:51:18;7.60;;;5.40;;
65545;SDS011;52177;55.968;37.498;2022-08-02T01:52:09;11.32;;;5.72;;
65545;SDS011;52177;55.968;37.498;2022-08-02T01:52:54;7.53;;;5.80;;
65545;SDS011;52177;55.968;37.498;2022-08-02T01:53:27;6.57;;;5.32;;
65545;SDS011;52177;55.968;37.498;2022-08-02T01:53:59;8.48;;;5.80;;
65545;SDS011;52177;55.968;37.498;2022-08-02T01:54:31;7.28;;;5.30;;
65545;SDS011;52177;55.968;37.498;2022-08-02T01:55:05;8.65;;;5.70;;
65545;SDS011;52177;55.968;37.498;2022-08-02T01:55:41;7.90;;;5.32;;
65545;SDS011;52177;55.968;37.498;2022-08-02T01:56:14;7.95;;;5.80;;
65545;SDS011;52177;55.968;37.498;2022-08-02T01:56:46;7.07;;;5.50;;
65545;SDS011;52177;55.968;37.498;2022-08-02T01:57:20;9.10;;;5.20;;
65545;SDS011;52177;55.968;37.498;2022-08-02T01:57:53;9.30;;;5.88;;
65545;SDS011;52177;55.968;37.498;2022-08-02T01:58:28;10.73;;;6.13;;
65545;SDS011;52177;55.968;37.498;2022-08-02T01:59:02;9.77;;;5.97;;
65545;SDS011;52177;55.968;37.498;2022-08-02T01:59:34;8.68;;;6.07;;
65545;SDS011;52177;55.968;37.498;2022-08-02T02:00:06;8.90;;;5.53;;
65545;SDS011;52177;55.968;37.498;2022-08-02T02:00:39;7.57;;;5.90;;
65545;SDS011;52177;55.968;37.498;2022-08-02T02:01:10;8.18;;;5.68;;
65545;SDS011;52177;55.968;37.498;2022-08-02T02:01:43;7.05;;;5.40;;
65545;SDS011;52177;55.968;37.498;2022-08-02T02:02:16;9.15;;;5.68;;
65545;SDS011;52177;55.968;37.498;2022-08-02T02:02:48;11.20;;;5.90;;
65545;SDS011;52177;55.968;37.498;2022-08-02T02:03:23;8.18;;;5.75;;
65545;SDS011;52177;55.968;37.498;2022-08-02T02:03:54;9.45;;;5.38;;
65545;SDS011;52177;55.968;37.498;2022-08-02T02:04:25;8.70;;;6.15;;
65545;SDS011;52177;55.968;37.498;2022-08-02T02:04:58;7.97;;;5.47;;
65545;SDS011;52177;55.968;37.498;2022-08-02T02:05:31;8.23;;;5.47;;
65545;SDS011;52177;55.968;37.498;2022-08-02T02:06:02;9.93;;;5.43;;
65545;SDS011;52177;55.968;37.498;2022-08-02T02:06:36;8.20;;;5.75;;
65545;SDS011;52177;55.968;37.498;2022-08-02T02:07:07;10.20;;;6.13;;
65545;SDS011;52177;55.968;37.498;2022-08-02T02:07:40;9.65;;;5.75;;
65545;SDS011;52177;55.968;37.498;2022-08-02T02:08:12;11.48;;;6.35;;
65545;SDS011;52177;55.968;37.498;2022-08-02T02:08:43;6.20;;;5.53;;
65545;SDS011;52177;55.968;37.498;2022-08-02T02:09:14;9.27;;;5.70;;
65545;SDS011;52177;55.968;37.498;2022-08-02T02:09:46;8.55;;;5.95;;
65545;SDS011;52177;55.968;37.498;2022-08-02T02:10:18;8.70;;;5.85;;
65545;SDS011;52177;55.968;37.498;2022-08-02T02:11:30;9.50;;;6.20;;
65545;SDS011;52177;55.968;37.498;2022-08-02T02:12:01;7.07;;;5.60;;
65545;SDS011;52177;55.968;37.498;2022-08-02T02:12:33;10.27;;;6.22;;
65545;SDS011;52177;55.968;37.498;2022-08-02T02:13:07;8.48;;;5.97;;
65545;SDS011;52177;55.968;37.498;2022-08-02T02:13:39;7.82;;;5.55;;
65545;SDS011;52177;55.968;37.498;2022-08-02T02:14:11;7.55;;;6.05;;
65545;SDS011;52177;55.968;37.498;2022-08-02T02:14:45;8.60;;;5.85;;
65545;SDS011;52177;55.968;37.498;2022-08-02T02:15:17;9.25;;;5.90;;
65545;SDS011;52177;55.968;37.498;2022-08-02T02:15:49;7.40;;;5.75;;
65545;SDS011;52177;55.968;37.498;2022-08-02T02:16:20;12.32;;;5.80;;
65545;SDS011;52177;55.968;37.498;2022-08-02T02:16:52;9.73;;;6.18;;
65545;SDS011;52177;55.968;37.498;2022-08-02T02:17:25;8.90;;;6.13;;
65545;SDS011;52177;55.968;37.498;2022-08-02T02:17:58;9.70;;;6.18;;
65545;SDS011;52177;55.968;37.498;2022-08-02T02:18:31;7.18;;;6.28;;
65545;SDS011;52177;55.968;37.498;2022-08-02T02:19:07;9.63;;;5.90;;
65545;SDS011;52177;55.968;37.498;2022-08-02T02:19:39;11.48;;;5.80;;
65545;SDS011;52177;55.968;37.498;2022-08-02T02:20:15;9.40;;;6.00;;
65545;SDS011;52177;55.968;37.498;2022-08-02T02:20:47;10.23;;;5.90;;
65545;SDS011;52177;55.968;37.498;2022-08-02T02:21:17;8.98;;;5.97;;
65545;SDS011;52177;55.968;37.498;2022-08-02T02:21:48;9.63;;;6.30;;
65545;SDS011;52177;55.968;37.498;2022-08-02T02:22:19;11.15;;;6.63;;
65545;SDS011;52177;55.968;37.498;2022-08-02T02:22:49;8.98;;;6.25;;
65545;SDS011;52177;55.968;37.498;2022-08-02T02:23:21;6.53;;;5.78;;
65545;SDS011;52177;55.968;37.498;2022-08-02T02:23:52;7.10;;;5.82;;
65545;SDS011;52177;55.968;37.498;2022-08-02T02:24:22;8.15;;;5.80;;
65545;SDS011;52177;55.968;37.498;2022-08-02T02:24:53;6.57;;;5.43;;
65545;SDS011;52177;55.968;37.498;2022-08-02T02:25:24;9.57;;;5.88;;
65545;SDS011;52177;55.968;37.498;2022-08-02T02:25:55;9.05;;;6.00;;
65545;SDS011;52177;55.968;37.498;2022-08-02T02:26:26;8.32;;;6.43;;
65545;SDS011;52177;55.968;37.498;2022-08-02T02:26:59;8.20;;;6.22;;
65545;SDS011;52177;55.968;37.498;2022-08-02T02:27:32;10.48;;;6.10;;
65545;SDS011;52177;55.968;37.498;2022-08-02T02:28:27;8.98;;;6.07;;
65545;SDS011;52177;55.968;37.498;2022-08-02T02:29:00;9.65;;;6.00;;
65545;SDS011;52177;55.968;37.498;2022-08-02T02:29:32;9.18;;;6.18;;
65545;SDS011;52177;55.968;37.498;2022-08-02T02:30:03;6.80;;;5.93;;
65545;SDS011;52177;55.968;37.498;2022-08-02T02:30:36;8.00;;;6.07;;
65545;SDS011;52177;55.968;37.498;2022-08-02T02:31:09;14.30;;;6.05;;
65545;SDS011;52177;55.968;37.498;2022-08-02T02:31:43;6.55;;;5.93;;
65545;SDS011;52177;55.968;37.498;2022-08-02T02:32:16;8.43;;;6.38;;
65545;SDS011;52177;55.968;37.498;2022-08-02T02:32:49;12.85;;;6.22;;
65545;SDS011;52177;55.968;37.498;2022-08-02T02:33:22;8.77;;;6.13;;
65545;SDS011;52177;55.968;37.498;2022-08-02T02:34:01;8.07;;;6.15;;
65545;SDS011;52177;55.968;37.498;2022-08-02T02:34:36;12.07;;;6.20;;
65545;SDS011;52177;55.968;37.498;2022-08-02T02:35:10;8.20;;;5.75;;
65545;SDS011;52177;55.968;37.498;2022-08-02T02:35:42;9.20;;;6.53;;
65545;SDS011;52177;55.968;37.498;2022-08-02T02:36:15;11.02;;;6.43;;
65545;SDS011;52177;55.968;37.498;2022-08-02T02:36:49;6.32;;;5.57;;
65545;SDS011;52177;55.968;37.498;2022-08-02T02:37:21;7.93;;;6.35;;
65545;SDS011;52177;55.968;37.498;2022-08-02T02:37:55;9.32;;;5.80;;
65545;SDS011;52177;55.968;37.498;2022-08-02T02:38:30;9.45;;;5.80;;
65545;SDS011;52177;55.968;37.498;2022-08-02T02:39:03;9.25;;;5.65;;
65545;SDS011;52177;55.968;37.498;2022-08-02T02:39:36;12.07;;;6.32;;
65545;SDS011;52177;55.968;37.498;2022-08-02T02:40:09;7.32;;;6.28;;
65545;SDS011;52177;55.968;37.498;2022-08-02T02:40:41;8.98;;;5.80;;
65545;SDS011;52177;55.968;37.498;2022-08-02T02:41:14;7.63;;;6.60;;
65545;SDS011;52177;55.968;37.498;2022-08-02T02:41:47;7.18;;;5.75;;
65545;SDS011;52177;55.968;37.498;2022-08-02T02:42:19;9.02;;;6.43;;
65545;SDS011;52177;55.968;37.498;2022-08-02T02:42:55;9.18;;;6.20;;
65545;SDS011;52177;55.968;37.498;2022-08-02T02:43:29;9.68;;;6.72;;
65545;SDS011;52177;55.968;37.498;2022-08-02T02:44:02;8.48;;;5.85;;
65545;SDS011;52177;55.968;37.498;2022-08-02T02:44:35;10.40;;;5.85;;
65545;SDS011;52177;55.968;37.498;2022-08-02T02:45:08;9.00;;;5.93;;
65545;SDS011;52177;55.968;37.498;2022-08-02T02:45:40;6.97;;;6.20;;
65545;SDS011;52177;55.968;37.498;2022-08-02T02:46:12;8.40;;;6.38;;
65545;SDS011;52177;55.968;37.498;2022-08-02T02:46:43;8.48;;;6.43;;
65545;SDS011;52177;55.968;37.498;2022-08-02T02:47:14;9.27;;;6.22;;
65545;SDS011;52177;55.968;37.498;2022-08-02T02:47:45;12.73;;;6.45;;
65545;SDS011;52177;55.968;37.498;2022-08-02T02:48:18;7.20;;;5.95;;
65545;SDS011;52177;55.968;37.498;2022-08-02T02:48:49;8.13;;;6.45;;
65545;SDS011;52177;55.968;37.498;2022-08-02T02:49:21;10.75;;;6.65;;
65545;SDS011;52177;55.968;37.498;2022-08-02T02:49:53;8.25;;;6.95;;
65545;SDS011;52177;55.968;37.498;2022-08-02T02:50:26;11.02;;;6.35;;
65545;SDS011;52177;55.968;37.498;2022-08-02T02:50:58;7.60;;;6.22;;
65545;SDS011;52177;55.968;37.498;2022-08-02T02:51:32;8.27;;;6.25;;
65545;SDS011;52177;55.968;37.498;2022-08-02T02:52:04;9.25;;;6.38;;
65545;SDS011;52177;55.968;37.498;2022-08-02T02:52:36;9.40;;;6.63;;
65545;SDS011;52177;55.968;37.498;2022-08-02T02:53:09;9.18;;;6.45;;
65545;SDS011;52177;55.968;37.498;2022-08-02T02:53:42;7.18;;;6.45;;
65545;SDS011;52177;55.968;37.498;2022-08-02T02:54:14;9.05;;;6.60;;
65545;SDS011;52177;55.968;37.498;2022-08-02T02:54:46;10.38;;;6.80;;
65545;SDS011;52177;55.968;37.498;2022-08-02T02:55:19;10.00;;;7.07;;
65545;SDS011;52177;55.968;37.498;2022-08-02T02:55:51;11.65;;;7.22;;
65545;SDS011;52177;55.968;37.498;2022-08-02T02:56:22;7.50;;;6.72;;
65545;SDS011;52177;55.968;37.498;2022-08-02T02:56:53;10.75;;;7.13;;
65545;SDS011;52177;55.968;37.498;2022-08-02T02:57:24;11.38;;;6.72;;
65545;SDS011;52177;55.968;37.498;2022-08-02T02:57:54;9.30;;;7.03;;
65545;SDS011;52177;55.968;37.498;2022-08-02T02:58:25;8.65;;;6.70;;
65545;SDS011;52177;55.968;37.498;2022-08-02T02:58:57;10.32;;;6.85;;
65545;SDS011;52177;55.968;37.498;2022-08-02T02:59:29;8.82;;;6.63;;
65545;SDS011;52177;55.968;37.498;2022-08-02T03:00:00;8.85;;;6.70;;
65545;SDS011;52177;55.968;37.498;2022-08-02T03:00:31;9.00;;;6.82;;
65545;SDS011;52177;55.968;37.498;2022-08-02T03:01:21;12.00;;;6.75;;
65545;SDS011;52177;55.968;37.498;2022-08-02T03:02:00;9.05;;;6.97;;
65545;SDS011;52177;55.968;37.498;2022-08-02T03:02:31;11.23;;;7.22;;
65545;SDS011;52177;55.968;37.498;2022-08-02T03:03:03;9.68;;;7.38;;
65545;SDS011;52177;55.968;37.498;2022-08-02T03:03:34;12.05;;;7.47;;
65545;SDS011;52177;55.968;37.498;2022-08-02T03:04:05;9.70;;;6.70;;
65545;SDS011;52177;55.968;37.498;2022-08-02T03:04:39;8.75;;;6.85;;
65545;SDS011;52177;55.968;37.498;2022-08-02T03:05:11;10.32;;;7.03;;
65545;SDS011;52177;55.968;37.498;2022-08-02T03:05:42;11.13;;;7.50;;
65545;SDS011;52177;55.968;37.498;2022-08-02T03:06:12;10.70;;;7.43;;
65545;SDS011;52177;55.968;37.498;2022-08-02T03:06:43;12.02;;;7.35;;
65545;SDS011;52177;55.968;37.498;2022-08-02T03:07:13;10.82;;;7.13;;
65545;SDS011;52177;55.968;37.498;2022-08-02T03:07:44;12.35;;;7.05;;
65545;SDS011;52177;55.968;37.498;2022-08-02T03:08:14;7.38;;;6.53;;
65545;SDS011;52177;55.968;37.498;2022-08-02T03:08:45;10.73;;;6.38;;
65545;SDS011;52177;55.968;37.498;2022-08-02T03:09:16;12.43;;;7.32;;
65545;SDS011;52177;55.968;37.498;2022-08-02T03:09:46;11.65;;;6.70;;
65545;SDS011;52177;55.968;37.498;2022-08-02T03:10:17;12.63;;;6.32;;
65545;SDS011;52177;55.968;37.498;2022-08-02T03:10:47;9.50;;;6.55;;
65545;SDS011;52177;55.968;37.498;2022-08-02T03:11:18;9.73;;;6.32;;
65545;SDS011;52177;55.968;37.498;2022-08-02T03:11:49;8.77;;;6.03;;
65545;SDS011;52177;55.968;37.498;2022-08-02T03:12:22;11.50;;;6.43;;
65545;SDS011;52177;55.968;37.498;2022-08-02T03:12:53;8.52;;;6.35;;
65545;SDS011;52177;55.968;37.498;2022-08-02T03:13:25;9.57;;;5.93;;
65545;SDS011;52177;55.968;37.498;2022-08-02T03:13:56;8.82;;;6.30;;
65545;SDS011;52177;55.968;37.498;2022-08-02T03:14:28;8.90;;;6.47;;
65545;SDS011;52177;55.968;37.498;2022-08-02T03:15:00;8.00;;;6.43;;
65545;SDS011;52177;55.968;37.498;2022-08-02T03:15:33;7.43;;;6.55;;
65545;SDS011;52177;55.968;37.498;2022-08-02T03:16:06;10.05;;;6.55;;
65545;SDS011;52177;55.968;37.498;2022-08-02T03:16:50;7.93;;;5.30;;
65545;SDS011;52177;55.968;37.498;2022-08-02T03:17:21;11.23;;;6.10;;
65545;SDS011;52177;55.968;37.498;2022-08-02T03:17:52;8.38;;;6.68;;
65545;SDS011;52177;55.968;37.498;2022-08-02T03:18:35;10.43;;;5.93;;
65545;SDS011;52177;55.968;37.498;2022-08-02T03:19:07;7.95;;;5.78;;
65545;SDS011;52177;55.968;37.498;2022-08-02T03:19:38;7.47;;;6.07;;
65545;SDS011;52177;55.968;37.498;2022-08-02T03:20:09;7.30;;;5.70;;
65545;SDS011;52177;55.968;37.498;2022-08-02T03:20:44;8.50;;;5.85;;
65545;SDS011;52177;55.968;37.498;2022-08-02T03:21:14;10.40;;;6.28;;
65545;SDS011;52177;55.968;37.498;2022-08-02T03:21:45;10.98;;;6.68;;